Time;durP1;ratioP1;P1;durP2;ratioP2;P2;SDS_P1;SDS_P2;PMS_P1;PMS_P2;Temp;Humidity;BMP_temperature;BMP_pressure;BME280_temperature;BME280_humidity;BME280_pressure;Samples;Min_cycle;Max_cycle;Signal;HPM_P1;HPM_P2
2021/04/27 00:00:15;;;;;;;9.38;3.70;;;;;;;16.38;35.55;100911.28;143742;586;46018;-78
2021/04/27 00:02:43;;;;;;;10.15;4.80;;;;;;;16.40;38.91;100922.69;143741;565;46012;-87
2021/04/27 00:05:14;;;;;;;8.65;5.12;;;;;;;16.27;40.47;100937.47;143740;681;46018;-76
2021/04/27 00:07:42;;;;;;;8.77;5.00;;;;;;;16.08;41.06;100919.78;143739;689;46012;-75
2021/04/27 00:10:13;;;;;;;10.70;5.18;;;;;;;16.15;42.07;100930.94;143742;583;47012;-75
2021/04/27 00:12:41;;;;;;;12.85;5.40;;;;;;;16.08;42.51;100935.69;143739;702;46023;-75
2021/04/27 00:15:12;;;;;;;8.82;4.65;;;;;;;15.89;44.11;100924.25;143743;593;46010;-74
2021/04/27 00:17:40;;;;;;;9.20;4.62;;;;;;;15.88;44.23;100919.88;143742;687;46021;-84
2021/04/27 00:20:09;;;;;;;9.35;4.75;;;;;;;15.89;44.38;100913.66;143739;693;47010;-81
2021/04/27 00:22:36;;;;;;;7.95;4.60;;;;;;;15.84;44.39;100920.94;143740;563;46012;-86
2021/04/27 00:25:05;;;;;;;8.18;4.80;;;;;;;15.72;45.59;100920.56;143738;660;47010;-83
2021/04/27 00:27:33;;;;;;;8.40;4.35;;;;;;;15.73;44.82;100919.66;143738;590;47010;-81
2021/04/27 00:30:00;;;;;;;13.27;4.68;;;;;;;15.73;44.64;100922.28;143740;589;47010;-79
2021/04/27 00:32:37;;;;;;;9.32;4.53;;;;;;;15.81;44.75;100915.81;143738;643;46019;-80
2021/04/27 00:35:05;;;;;;;8.88;4.65;;;;;;;15.82;45.73;100906.94;143740;571;46010;-82
2021/04/27 00:37:32;;;;;;;10.18;4.45;;;;;;;15.86;45.20;100906.72;143739;629;47010;-84
2021/04/27 00:39:59;;;;;;;9.55;4.97;;;;;;;15.81;45.56;100907.87;143738;589;47010;-83
2021/04/27 00:42:32;;;;;;;8.80;4.60;;;;;;;15.85;46.12;100904.16;143738;566;47012;-82
2021/04/27 00:45:00;;;;;;;12.35;5.35;;;;;;;15.82;46.28;100897.19;143736;588;47012;-87
2021/04/27 00:47:27;;;;;;;7.87;4.43;;;;;;;15.72;46.55;100886.16;143742;652;45050;-84
2021/04/27 00:49:56;;;;;;;9.25;4.18;;;;;;;15.64;46.42;100883.00;143741;592;47012;-86
2021/04/27 00:52:25;;;;;;;10.20;4.10;;;;;;;15.53;46.32;100880.84;143739;582;47911;-86
2021/04/27 00:54:52;;;;;;;7.85;3.85;;;;;;;15.54;45.99;100881.69;143740;659;46019;-87
2021/04/27 00:57:23;;;;;;;7.87;4.72;;;;;;;15.50;46.62;100877.47;143739;599;47008;-86
2021/04/27 00:59:52;;;;;;;10.73;4.55;;;;;;;15.48;46.41;100874.06;143740;639;47012;-85
2021/04/27 01:02:19;;;;;;;7.28;4.05;;;;;;;15.48;46.57;100879.34;143741;579;46012;-86
2021/04/27 01:04:46;;;;;;;9.07;4.47;;;;;;;15.45;47.13;100884.78;143740;614;46010;-82
2021/04/27 01:07:17;;;;;;;11.40;4.25;;;;;;;15.42;47.01;100899.03;143741;564;46020;-86
2021/04/27 01:09:51;;;;;;;7.35;4.15;;;;;;;15.36;47.16;100900.16;143742;578;47012;-85
2021/04/27 01:12:36;;;;;;;6.30;3.60;;;;;;;15.40;47.35;100904.38;143739;579;46018;-85
2021/04/27 01:15:15;;;;;;;7.15;4.05;;;;;;;15.36;47.30;100904.56;143740;682;47010;-81
2021/04/27 01:17:56;;;;;;;7.25;3.72;;;;;;;15.34;46.97;100917.03;143741;646;46021;-77
2021/04/27 01:20:44;;;;;;;7.00;4.03;;;;;;;15.13;47.24;100919.69;143742;611;46018;-80
2021/04/27 01:24:08;;;;;;;10.15;4.03;;;;;;;15.14;47.55;100933.78;143735;571;47012;-81
2021/04/27 01:26:54;;;;;;;8.15;3.60;;;;;;;15.01;48.20;100930.81;143741;575;46010;-81
2021/04/27 01:29:27;;;;;;;8.20;4.00;;;;;;;15.03;47.81;100921.84;143739;576;46020;-82
2021/04/27 01:31:58;;;;;;;8.70;4.40;;;;;;;14.86;48.19;100916.47;143741;570;47018;-77
2021/04/27 01:34:37;;;;;;;7.12;3.53;;;;;;;14.82;48.22;100910.44;143740;626;46021;-80
2021/04/27 01:37:05;;;;;;;10.07;4.00;;;;;;;14.74;48.21;100904.63;143741;625;46010;-80
2021/04/27 01:39:34;;;;;;;6.85;4.05;;;;;;;14.70;48.15;100903.88;143738;614;47010;-77
2021/04/27 01:42:03;;;;;;;8.05;4.18;;;;;;;14.65;48.85;100908.50;143741;566;47012;-77
2021/04/27 01:44:34;;;;;;;9.13;4.30;;;;;;;14.67;48.89;100908.44;143742;620;46012;-76
2021/04/27 01:47:02;;;;;;;8.95;4.20;;;;;;;14.65;49.34;100899.72;143742;578;46011;-77
2021/04/27 01:49:30;;;;;;;8.90;4.30;;;;;;;14.58;49.66;100907.00;143736;620;47010;-82
2021/04/27 01:51:58;;;;;;;7.32;3.97;;;;;;;14.53;50.11;100919.56;143741;593;47012;-80
2021/04/27 01:54:29;;;;;;;13.95;4.50;;;;;;;14.49;50.10;100928.50;143740;608;46013;-78
2021/04/27 01:56:57;;;;;;;13.40;4.65;;;;;;;14.40;50.76;100924.47;143739;563;46018;-79
2021/04/27 01:59:24;;;;;;;9.50;4.53;;;;;;;14.51;50.38;100924.03;143740;564;46020;-81
2021/04/27 02:01:52;;;;;;;8.50;4.47;;;;;;;14.31;50.88;100916.91;143741;593;47012;-82
2021/04/27 02:04:28;;;;;;;11.00;5.25;;;;;;;14.35;50.71;100916.75;143742;624;46012;-79
2021/04/27 02:06:57;;;;;;;7.90;3.97;;;;;;;14.29;50.72;100935.47;143742;634;47008;-79
2021/04/27 02:09:27;;;;;;;9.43;3.90;;;;;;;14.41;49.86;100935.88;143740;628;47012;-79
2021/04/27 02:11:55;;;;;;;7.93;4.10;;;;;;;14.40;50.09;100940.31;143741;632;47012;-79
2021/04/27 02:14:28;;;;;;;9.73;4.07;;;;;;;14.41;50.12;100936.75;143734;588;47018;-80
2021/04/27 02:17:32;;;;;;;12.68;4.03;;;;;;;14.37;49.74;100925.44;143739;577;46019;-81
2021/04/27 02:20:07;;;;;;;8.50;3.87;;;;;;;14.50;50.21;100938.16;143740;590;47010;-79
2021/04/27 02:22:35;;;;;;;7.55;3.90;;;;;;;14.53;49.93;100933.62;143740;569;47012;-80
2021/04/27 02:25:04;;;;;;;7.20;3.92;;;;;;;14.55;50.02;100928.28;143736;569;46910;-79
2021/04/27 02:27:34;;;;;;;8.43;3.75;;;;;;;14.54;50.11;100932.72;143739;566;47010;-79
2021/04/27 02:30:07;;;;;;;9.32;4.12;;;;;;;14.49;50.50;100931.16;143741;569;47012;-78
2021/04/27 02:32:39;;;;;;;9.63;4.12;;;;;;;14.56;50.26;100930.00;143743;634;46018;-80
2021/04/27 02:35:10;;;;;;;14.23;4.12;;;;;;;14.45;50.84;100909.28;143740;616;46012;-78
2021/04/27 02:37:39;;;;;;;9.85;4.53;;;;;;;14.48;51.08;100918.87;143740;570;47010;-78
2021/04/27 02:40:08;;;;;;;9.07;4.43;;;;;;;14.50;51.51;100903.81;143736;566;46010;-79
2021/04/27 02:42:38;;;;;;;8.18;4.60;;;;;;;14.50;51.75;100919.66;143741;566;46020;-78
2021/04/27 02:45:09;;;;;;;9.88;4.65;;;;;;;14.45;53.40;100924.28;143739;586;46019;-77
2021/04/27 02:47:37;;;;;;;8.68;4.60;;;;;;;14.52;51.69;100920.47;143740;650;46019;-77
2021/04/27 02:50:05;;;;;;;9.30;4.50;;;;;;;14.56;52.08;100916.78;143741;563;47012;-77
2021/04/27 02:52:32;;;;;;;8.57;4.10;;;;;;;14.57;52.34;100921.16;143743;607;46017;-79
2021/04/27 02:54:59;;;;;;;8.30;4.87;;;;;;;14.48;53.68;100911.81;143741;587;47012;-79
2021/04/27 02:57:26;;;;;;;10.98;5.40;;;;;;;14.51;53.43;100911.66;143739;569;46018;-79
2021/04/27 02:59:54;;;;;;;9.68;5.05;;;;;;;14.57;53.53;100900.00;143740;623;46020;-80
2021/04/27 03:02:21;;;;;;;9.80;5.22;;;;;;;14.55;53.62;100904.50;143741;564;47013;-76
2021/04/27 03:04:48;;;;;;;11.77;5.30;;;;;;;14.51;53.58;100901.09;143738;636;46033;-76
2021/04/27 03:07:15;;;;;;;8.23;5.10;;;;;;;14.53;53.82;100898.44;143742;664;46018;-75
2021/04/27 03:09:42;;;;;;;12.85;5.25;;;;;;;14.52;53.86;100901.97;143740;594;46021;-73
2021/04/27 03:12:09;;;;;;;11.85;5.85;;;;;;;14.48;53.78;100910.97;143741;677;47012;-77
2021/04/27 03:14:37;;;;;;;9.75;5.45;;;;;;;14.47;53.75;100904.78;143739;670;46020;-76
2021/04/27 03:17:04;;;;;;;10.23;5.22;;;;;;;14.53;53.95;100904.56;143742;564;46011;-76
2021/04/27 03:19:31;;;;;;;9.70;5.07;;;;;;;14.51;54.22;100895.81;143739;608;47010;-80
2021/04/27 03:21:58;;;;;;;8.88;5.18;;;;;;;14.53;54.86;100893.12;143741;589;47010;-75
2021/04/27 03:24:25;;;;;;;8.50;5.57;;;;;;;14.54;54.75;100894.84;143741;593;46013;-74
2021/04/27 03:26:52;;;;;;;9.45;5.40;;;;;;;14.54;55.00;100890.44;143740;662;46010;-75
2021/04/27 03:29:19;;;;;;;10.07;5.03;;;;;;;14.41;54.59;100881.28;143739;589;46020;-78
2021/04/27 03:31:46;;;;;;;9.82;5.37;;;;;;;14.46;54.59;100902.22;143740;569;46010;-75
2021/04/27 03:34:13;;;;;;;10.02;5.10;;;;;;;14.36;56.71;100915.78;143738;565;46018;-79
2021/04/27 03:36:40;;;;;;;9.15;4.93;;;;;;;14.41;55.20;100915.63;143735;675;46018;-80
2021/04/27 03:39:07;;;;;;;8.82;5.22;;;;;;;14.40;55.58;100932.41;143739;579;46021;-81
2021/04/27 03:41:34;;;;;;;7.87;4.82;;;;;;;14.38;56.63;100953.59;143737;563;47010;-77
2021/04/27 03:44:02;;;;;;;8.82;4.85;;;;;;;14.52;55.73;100944.25;143736;604;47012;-74
2021/04/27 03:46:29;;;;;;;8.95;5.00;;;;;;;14.43;56.54;100960.47;143739;635;46010;-75
2021/04/27 03:48:56;;;;;;;10.50;5.43;;;;;;;14.53;55.64;100967.12;143741;564;45063;-78
2021/04/27 03:51:23;;;;;;;9.85;5.80;;;;;;;14.61;56.12;100965.03;143739;695;47012;-71
2021/04/27 03:53:50;;;;;;;11.57;5.70;;;;;;;14.80;54.76;100978.34;143736;569;46012;-73
2021/04/27 03:56:18;;;;;;;9.65;5.87;;;;;;;14.85;54.82;100973.75;143736;668;47010;-72
2021/04/27 03:58:45;;;;;;;10.60;5.80;;;;;;;14.95;54.49;100963.63;143737;655;46020;-71
2021/04/27 04:01:12;;;;;;;11.57;6.07;;;;;;;14.99;54.95;100964.38;143739;649;47012;-71
2021/04/27 04:03:43;;;;;;;10.30;5.07;;;;;;;15.07;55.73;100963.09;143736;583;46025;-74
2021/04/27 04:06:10;;;;;;;12.82;6.20;;;;;;;15.12;55.98;100965.56;143741;675;46010;-74
2021/04/27 04:08:37;;;;;;;8.45;5.70;;;;;;;15.11;55.45;100968.28;143742;630;45021;-74
2021/04/27 04:11:05;;;;;;;9.88;6.00;;;;;;;15.12;55.31;100977.91;143737;593;46031;-74
2021/04/27 04:13:32;;;;;;;13.85;5.85;;;;;;;15.16;55.20;100984.78;143735;661;47012;-77
2021/04/27 04:15:59;;;;;;;14.68;6.10;;;;;;;15.22;55.09;100977.47;143740;685;46011;-76
2021/04/27 04:18:26;;;;;;;12.00;6.25;;;;;;;15.16;55.11;100975.09;143739;569;46010;-73
2021/04/27 04:20:54;;;;;;;12.82;6.28;;;;;;;15.26;54.84;100996.72;143739;582;47012;-74
2021/04/27 04:23:21;;;;;;;14.05;6.10;;;;;;;15.27;55.45;100989.63;143737;595;47014;-81
2021/04/27 04:25:49;;;;;;;12.40;5.90;;;;;;;15.36;55.36;100986.59;143740;574;46010;-81
2021/04/27 04:28:16;;;;;;;12.23;5.10;;;;;;;15.42;56.19;100982.81;143739;579;46020;-81
2021/04/27 04:30:43;;;;;;;15.65;6.28;;;;;;;15.35;56.10;100992.78;143739;576;47008;-81
2021/04/27 04:33:10;;;;;;;11.55;6.00;;;;;;;15.29;56.38;100970.13;143739;617;46033;-82
2021/04/27 04:35:37;;;;;;;14.35;6.10;;;;;;;15.47;56.19;100986.13;143738;644;46018;-82
2021/04/27 04:38:05;;;;;;;12.40;6.53;;;;;;;15.47;56.66;100991.41;143738;577;47010;-82
2021/04/27 04:40:32;;;;;;;15.57;6.50;;;;;;;15.58;56.56;100983.84;143739;574;48012;-82
2021/04/27 04:42:59;;;;;;;16.55;7.55;;;;;;;15.68;56.65;100979.03;143738;636;46018;-83
2021/04/27 04:45:27;;;;;;;13.27;6.80;;;;;;;15.76;57.75;100978.66;143738;700;47010;-82
2021/04/27 04:47:54;;;;;;;13.52;6.32;;;;;;;15.68;57.66;100995.75;143739;564;46010;-81
2021/04/27 04:50:22;;;;;;;13.93;7.07;;;;;;;15.64;60.26;101009.22;143737;674;47010;-79
2021/04/27 04:52:50;;;;;;;12.45;7.00;;;;;;;15.70;58.12;101007.13;143735;688;47013;-79
2021/04/27 04:55:17;;;;;;;14.93;7.25;;;;;;;15.77;59.57;101009.50;143740;563;46010;-78
2021/04/27 04:57:45;;;;;;;13.13;7.43;;;;;;;15.89;57.57;101004.53;143736;584;47010;-83
2021/04/27 05:00:20;;;;;;;14.25;7.07;;;;;;;15.94;57.30;100999.03;143740;596;47012;-79
2021/04/27 05:02:47;;;;;;;13.23;7.78;;;;;;;16.04;57.90;101005.63;143735;572;48012;-80
2021/04/27 05:05:15;;;;;;;14.63;7.97;;;;;;;16.10;57.85;100991.22;143740;645;45018;-81
2021/04/27 05:07:44;;;;;;;15.07;7.80;;;;;;;16.21;57.66;100993.37;143738;613;46011;-75
2021/04/27 05:10:16;;;;;;;16.33;8.38;;;;;;;16.28;58.18;100993.94;143740;788;46018;-74
2021/04/27 05:12:43;;;;;;;14.13;7.53;;;;;;;16.39;57.04;100989.03;143735;706;47909;-74
2021/04/27 05:15:11;;;;;;;15.15;7.87;;;;;;;16.48;56.97;100979.75;143734;695;46019;-78
2021/04/27 05:17:39;;;;;;;13.82;7.75;;;;;;;16.48;57.08;100966.50;143736;695;46020;-74
2021/04/27 05:20:07;;;;;;;14.15;8.07;;;;;;;16.59;57.16;100977.44;143739;592;46018;-75
2021/04/27 05:22:34;;;;;;;17.92;7.85;;;;;;;16.71;56.87;100968.87;143738;613;46019;-75
2021/04/27 05:25:01;;;;;;;17.12;8.35;;;;;;;16.76;56.88;100966.00;143738;606;46010;-75
2021/04/27 05:27:29;;;;;;;14.95;8.38;;;;;;;16.83;56.80;100966.56;143739;627;46010;-74
2021/04/27 05:29:56;;;;;;;17.23;8.95;;;;;;;16.93;56.54;100975.78;143738;614;47012;-75
2021/04/27 05:32:23;;;;;;;15.35;8.30;;;;;;;16.91;57.19;100965.25;143735;603;46018;-73
2021/04/27 05:34:50;;;;;;;15.32;8.20;;;;;;;16.94;56.70;100972.22;143736;598;47010;-75
2021/04/27 05:37:17;;;;;;;18.42;8.80;;;;;;;16.88;57.01;100961.88;143738;600;47011;-75
2021/04/27 05:39:44;;;;;;;13.68;8.15;;;;;;;16.68;58.17;100976.97;143737;615;47010;-73
2021/04/27 05:42:12;;;;;;;15.18;7.50;;;;;;;16.71;57.57;100962.72;143738;638;46012;-72
2021/04/27 05:44:39;;;;;;;15.65;7.97;;;;;;;16.79;58.87;100959.69;143740;673;46010;-75
2021/04/27 05:47:06;;;;;;;16.27;9.00;;;;;;;16.88;57.69;100961.88;143738;570;47012;-75
2021/04/27 05:49:33;;;;;;;16.55;7.97;;;;;;;16.98;57.05;100965.81;143738;570;47012;-75
2021/04/27 05:52:00;;;;;;;14.07;7.20;;;;;;;17.22;56.38;100965.47;143737;637;46019;-74
2021/04/27 05:54:27;;;;;;;13.50;6.85;;;;;;;17.28;55.50;100951.91;143729;596;47018;-77
2021/04/27 05:56:55;;;;;;;12.65;6.68;;;;;;;17.23;55.72;100951.28;143738;579;46020;-77
2021/04/27 05:59:22;;;;;;;13.68;8.18;;;;;;;17.21;56.06;100961.97;143739;605;47012;-75
2021/04/27 06:01:49;;;;;;;16.75;9.50;;;;;;;17.16;56.50;100961.34;143736;594;47910;-76
2021/04/27 06:04:19;;;;;;;14.18;8.57;;;;;;;17.30;56.68;100967.75;143737;600;46018;-75
2021/04/27 06:06:46;;;;;;;15.48;8.55;;;;;;;17.39;57.07;100960.16;143740;594;46011;-75
2021/04/27 06:09:16;;;;;;;14.43;8.02;;;;;;;17.52;56.38;100960.38;143738;575;47012;-79
2021/04/27 06:11:43;;;;;;;13.07;8.00;;;;;;;17.40;57.05;100961.00;143740;569;46012;-74
2021/04/27 06:14:12;;;;;;;12.05;7.32;;;;;;;17.69;56.06;100935.56;143738;579;46013;-76
2021/04/27 06:16:40;;;;;;;13.10;7.03;;;;;;;17.72;55.42;100931.87;143738;591;46021;-75
2021/04/27 06:19:09;;;;;;;17.62;7.53;;;;;;;17.86;55.61;100945.25;143740;581;46010;-80
2021/04/27 06:21:36;;;;;;;15.98;7.68;;;;;;;17.62;54.65;100958.09;143734;597;47013;-79
2021/04/27 06:24:04;;;;;;;13.40;8.02;;;;;;;17.58;55.19;100957.38;143738;649;47010;-79
2021/04/27 06:26:32;;;;;;;13.77;8.02;;;;;;;17.36;55.60;100947.06;143738;677;47010;-80
2021/04/27 06:29:00;;;;;;;14.48;9.02;;;;;;;17.36;54.52;100947.06;143735;592;46025;-79
2021/04/27 06:31:27;;;;;;;17.75;8.88;;;;;;;17.45;55.96;100940.38;143739;610;46018;-79
2021/04/27 06:33:55;;;;;;;13.25;8.00;;;;;;;17.59;55.46;100937.88;143740;616;46010;-81
2021/04/27 06:36:22;;;;;;;13.15;8.57;;;;;;;17.64;55.72;100937.59;143738;573;46011;-75
2021/04/27 06:38:49;;;;;;;13.93;8.40;;;;;;;17.72;55.42;100946.00;143739;596;47002;-85
2021/04/27 06:41:17;;;;;;;14.05;7.72;;;;;;;17.82;54.95;100945.50;143737;591;46018;-78
2021/04/27 06:43:45;;;;;;;11.77;7.45;;;;;;;17.84;54.97;100941.00;143737;643;46018;-79
2021/04/27 06:46:12;;;;;;;10.70;7.03;;;;;;;17.69;55.71;100940.88;143735;610;47010;-78
2021/04/27 06:48:40;;;;;;;10.20;6.40;;;;;;;17.88;54.83;100942.53;143737;601;46997;-78
2021/04/27 06:51:08;;;;;;;9.85;5.78;;;;;;;17.73;54.19;100939.75;143737;571;46018;-75
2021/04/27 06:53:36;;;;;;;10.65;6.22;;;;;;;17.79;54.15;100933.25;143737;588;47012;-72
2021/04/27 06:56:05;;;;;;;12.95;6.12;;;;;;;17.80;53.95;100937.63;143737;570;47010;-75
2021/04/27 06:58:32;;;;;;;11.02;5.70;;;;;;;17.72;53.63;100929.22;143739;596;46021;-75
2021/04/27 07:00:59;;;;;;;11.95;6.57;;;;;;;17.37;54.47;100919.59;143737;583;46018;-76
2021/04/27 07:03:26;;;;;;;11.32;6.15;;;;;;;17.65;54.42;100931.38;143738;585;46913;-75
2021/04/27 07:05:53;;;;;;;9.00;5.62;;;;;;;17.61;54.70;100928.97;143737;579;47011;-80
2021/04/27 07:08:21;;;;;;;9.82;6.07;;;;;;;17.65;55.81;100920.75;143739;640;47013;-78
2021/04/27 07:10:50;;;;;;;12.70;5.85;;;;;;;17.74;55.17;100920.25;143736;576;46018;-83
2021/04/27 07:13:17;;;;;;;10.32;5.68;;;;;;;17.73;54.12;100918.53;143738;570;47010;-80
2021/04/27 07:15:44;;;;;;;9.38;5.30;;;;;;;17.86;53.66;100928.47;143737;599;46021;-78
2021/04/27 07:18:11;;;;;;;10.65;5.00;;;;;;;17.88;53.03;100922.13;143740;639;47012;-80
2021/04/27 07:20:38;;;;;;;8.20;4.25;;;;;;;17.83;51.36;100920.69;143736;571;47012;-80
2021/04/27 07:23:06;;;;;;;14.35;4.87;;;;;;;18.04;52.65;100914.22;143738;571;48009;-80
2021/04/27 07:25:35;;;;;;;10.32;4.50;;;;;;;18.06;50.38;100914.13;143740;594;46010;-85
2021/04/27 07:28:05;;;;;;;9.43;4.55;;;;;;;18.16;51.18;100914.44;143740;585;47012;-82
2021/04/27 07:30:34;;;;;;;8.30;4.65;;;;;;;18.05;50.33;100913.25;143735;591;46014;-82
2021/04/27 07:33:02;;;;;;;7.30;4.00;;;;;;;18.17;49.98;100922.34;143739;732;46018;-79
2021/04/27 07:35:29;;;;;;;6.93;4.00;;;;;;;18.13;50.74;100925.25;143737;569;46020;-80
2021/04/27 07:38:00;;;;;;;6.87;3.60;;;;;;;18.09;51.09;100922.75;143739;570;48013;-79
2021/04/27 07:40:29;;;;;;;6.93;3.97;;;;;;;18.24;50.95;100921.03;143739;664;46012;-80
2021/04/27 07:42:57;;;;;;;6.70;3.92;;;;;;;18.48;50.93;100915.28;143737;579;46034;-80
2021/04/27 07:45:30;;;;;;;7.50;3.87;;;;;;;18.47;50.78;100921.53;143738;591;47008;-81
2021/04/27 07:47:59;;;;;;;;;;;;;;;18.39;50.76;100916.62;143739;980;47018;-81
2021/04/27 07:50:26;;;;;;;6.20;3.30;;;;;;;18.55;50.33;100915.78;143748;576;46022;-80
2021/04/27 07:52:53;;;;;;;6.22;3.70;;;;;;;18.71;50.08;100916.59;143738;604;46008;-78
2021/04/27 07:55:21;;;;;;;6.93;3.80;;;;;;;18.66;50.35;100908.00;143739;583;46020;-80
2021/04/27 07:57:48;;;;;;;6.25;3.92;;;;;;;18.80;50.62;100906.34;143738;599;48010;-80
2021/04/27 08:00:17;;;;;;;5.60;3.30;;;;;;;18.65;49.56;100905.44;143734;569;47010;-80
2021/04/27 08:02:44;;;;;;;7.78;3.72;;;;;;;18.63;50.47;100913.53;143739;636;46010;-80
2021/04/27 08:05:14;;;;;;;6.30;3.70;;;;;;;18.50;50.30;100912.53;143737;606;46010;-78
2021/04/27 08:07:42;;;;;;;5.90;3.75;;;;;;;18.69;50.48;100901.66;143739;619;46021;-80
2021/04/27 08:10:13;;;;;;;7.22;3.55;;;;;;;18.73;50.36;100903.19;143741;577;46010;-80
2021/04/27 08:12:46;;;;;;;6.03;3.42;;;;;;;18.83;50.18;100906.16;143736;604;47008;-80
2021/04/27 08:15:20;;;;;;;8.25;3.20;;;;;;;19.13;49.82;100897.31;143740;580;46018;-79
2021/04/27 08:17:48;;;;;;;6.68;3.53;;;;;;;18.91;49.52;100901.25;143739;586;46018;-76
2021/04/27 08:20:15;;;;;;;5.62;3.05;;;;;;;19.23;49.90;100901.09;143736;590;46022;-75
2021/04/27 08:22:45;;;;;;;6.70;3.20;;;;;;;19.45;47.31;100880.19;143739;573;46008;-72
2021/04/27 08:25:14;;;;;;;6.22;3.33;;;;;;;19.56;48.04;100878.66;143736;566;46026;-74
2021/04/27 08:27:43;;;;;;;5.53;3.20;;;;;;;19.34;48.09;100888.00;143739;607;46018;-75
2021/04/27 08:30:11;;;;;;;6.05;3.20;;;;;;;19.40;48.85;100879.62;143736;574;46023;-74
2021/04/27 08:32:39;;;;;;;8.07;3.62;;;;;;;19.35;50.08;100879.03;143737;684;46018;-76
2021/04/27 08:35:09;;;;;;;7.53;3.67;;;;;;;19.19;51.43;100868.53;143738;599;46020;-77
2021/04/27 08:37:36;;;;;;;7.85;4.00;;;;;;;19.22;51.05;100876.31;143737;597;46019;-77
2021/04/27 08:40:06;;;;;;;6.03;3.90;;;;;;;19.23;51.27;100867.37;143736;597;47010;-75
2021/04/27 08:42:35;;;;;;;7.45;3.90;;;;;;;19.08;51.53;100863.84;143736;592;46021;-76
2021/04/27 08:45:08;;;;;;;6.80;4.20;;;;;;;19.02;52.58;100866.03;143737;569;46021;-76
2021/04/27 08:47:35;;;;;;;;;;;;;;;19.07;52.25;100858.62;143741;980;47008;-76
2021/04/27 08:50:05;;;;;;;8.57;4.40;;;;;;;19.08;52.55;100860.31;143742;585;46919;-75
2021/04/27 08:52:32;;;;;;;6.70;4.25;;;;;;;19.23;52.05;100864.72;143740;574;46010;-75
2021/04/27 08:54:59;;;;;;;7.53;4.18;;;;;;;19.24;52.43;100853.09;143741;612;46020;-75
2021/04/27 08:57:26;;;;;;;6.72;3.75;;;;;;;19.25;51.04;100844.16;143738;586;48012;-75
2021/04/27 08:59:54;;;;;;;6.60;4.10;;;;;;;19.37;49.59;100834.56;143734;583;47012;-75
2021/04/27 09:02:29;;;;;;;9.10;4.10;;;;;;;19.53;49.95;100847.78;143738;621;46018;-75
2021/04/27 09:04:57;;;;;;;8.15;4.10;;;;;;;19.48;51.13;100855.19;143737;580;47008;-75
2021/04/27 09:07:27;;;;;;;5.97;3.83;;;;;;;19.61;50.53;100844.59;143738;571;47009;-75
2021/04/27 09:09:59;;;;;;;7.37;4.22;;;;;;;19.65;48.91;100843.44;143737;612;46909;-75
2021/04/27 09:12:31;;;;;;;7.35;4.00;;;;;;;19.95;47.63;100839.78;143734;564;47010;-75
2021/04/27 09:14:59;;;;;;;7.43;4.20;;;;;;;20.07;48.12;100827.47;143736;627;46021;-76
2021/04/27 09:17:29;;;;;;;6.53;3.55;;;;;;;20.26;47.04;100827.94;143739;570;47012;-74
2021/04/27 09:19:58;;;;;;;6.57;3.45;;;;;;;20.42;46.73;100822.44;143735;581;47020;-75
2021/04/27 09:22:32;;;;;;;5.32;3.37;;;;;;;20.37;45.28;100819.22;143738;598;47011;-74
2021/04/27 09:25:07;;;;;;;6.53;3.70;;;;;;;20.33;45.16;100806.22;143739;577;46020;-75
2021/04/27 09:27:42;;;;;;;6.45;3.78;;;;;;;20.58;46.02;100810.72;143742;564;46010;-75
2021/04/27 09:30:26;;;;;;;9.95;3.80;;;;;;;20.51;45.65;100809.44;143738;588;46012;-74
2021/04/27 09:33:09;;;;;;;8.45;4.10;;;;;;;20.50;45.90;100805.06;143737;587;46012;-74
2021/04/27 09:35:50;;;;;;;6.82;3.67;;;;;;;20.67;46.27;100799.44;143741;583;46010;-75
2021/04/27 09:38:26;;;;;;;5.03;3.70;;;;;;;20.73;45.80;100799.03;143739;662;47008;-74
2021/04/27 09:41:07;;;;;;;7.90;3.75;;;;;;;20.70;45.30;100783.22;143739;620;46037;-74
2021/04/27 09:43:40;;;;;;;6.47;3.60;;;;;;;20.89;42.91;100784.62;143739;591;47011;-75
2021/04/27 09:46:11;;;;;;;6.62;3.95;;;;;;;20.87;42.76;100773.19;143739;614;47010;-75
2021/04/27 09:48:54;;;;;;;6.68;3.37;;;;;;;21.04;43.94;100770.19;143739;582;46010;-74
2021/04/27 09:51:33;;;;;;;6.30;3.37;;;;;;;21.22;43.01;100777.84;143739;569;46020;-74
2021/04/27 09:54:03;;;;;;;5.97;3.15;;;;;;;21.33;41.25;100767.25;143737;619;47010;-74
2021/04/27 09:56:54;;;;;;;6.07;3.15;;;;;;;21.23;41.58;100760.88;143738;658;47010;-75
2021/04/27 09:59:42;;;;;;;8.48;3.37;;;;;;;21.54;42.25;100762.19;143743;668;46016;-75
2021/04/27 10:02:09;;;;;;;5.95;3.58;;;;;;;21.67;41.32;100761.28;143738;582;46012;-76
2021/04/27 10:04:40;;;;;;;8.00;4.10;;;;;;;21.89;40.38;100755.19;143739;648;47010;-75
2021/04/27 10:07:07;;;;;;;8.60;4.15;;;;;;;22.05;41.33;100747.72;143735;640;47010;-75
2021/04/27 10:09:35;;;;;;;8.45;4.05;;;;;;;22.28;40.77;100739.72;143738;679;47010;-75
2021/04/27 10:12:06;;;;;;;7.40;3.70;;;;;;;22.30;39.50;100733.31;143738;581;47909;-75
2021/04/27 10:14:33;;;;;;;8.98;4.50;;;;;;;22.61;37.30;100730.97;143739;608;47010;-74
2021/04/27 10:17:01;;;;;;;6.65;4.12;;;;;;;22.09;38.77;100718.91;143738;566;46020;-74
2021/04/27 10:19:29;;;;;;;5.93;3.30;;;;;;;22.25;39.43;100729.28;143737;591;47011;-75
2021/04/27 10:21:56;;;;;;;8.60;3.92;;;;;;;22.03;40.01;100720.22;143738;703;46021;-76
2021/04/27 10:24:24;;;;;;;5.82;3.58;;;;;;;22.18;39.42;100712.84;143740;633;46010;-75
2021/04/27 10:26:52;;;;;;;5.60;3.08;;;;;;;22.01;40.02;100713.28;143737;593;47011;-74
2021/04/27 10:29:24;;;;;;;8.30;3.90;;;;;;;21.86;39.14;100704.66;143739;587;47009;-75
2021/04/27 10:32:21;;;;;;;6.03;3.60;;;;;;;22.14;39.63;100700.69;143737;651;46022;-75
2021/04/27 10:35:20;;;;;;;7.03;3.70;;;;;;;21.89;38.97;100691.03;143740;622;46010;-75
2021/04/27 10:38:18;;;;;;;5.85;3.55;;;;;;;22.15;39.34;100705.91;143738;597;46018;-75
2021/04/27 10:41:03;;;;;;;6.45;3.40;;;;;;;22.19;39.52;100695.00;143742;619;46010;-75
2021/04/27 10:43:40;;;;;;;7.05;3.20;;;;;;;22.20;40.22;100689.53;143737;594;47022;-75
2021/04/27 10:46:50;;;;;;;5.82;3.40;;;;;;;22.21;40.53;100690.38;143737;622;46913;-73
2021/04/27 10:49:44;;;;;;;5.82;3.60;;;;;;;21.94;40.95;100683.53;143738;572;46020;-75
2021/04/27 10:52:41;;;;;;;4.72;3.30;;;;;;;22.05;40.60;100680.87;143740;664;47010;-77
2021/04/27 10:55:31;;;;;;;7.20;3.40;;;;;;;22.19;40.76;100681.66;143735;617;47022;-75
2021/04/27 10:58:03;;;;;;;6.75;3.67;;;;;;;22.14;42.10;100684.66;143738;574;46019;-76
2021/04/27 11:00:44;;;;;;;7.07;3.15;;;;;;;22.33;42.06;100683.25;143738;638;47012;-75
2021/04/27 11:03:18;;;;;;;7.05;3.30;;;;;;;22.21;42.83;100677.00;143745;607;46012;-75
2021/04/27 11:06:15;;;;;;;6.00;3.40;;;;;;;22.11;42.83;100671.53;143737;671;46910;-75
2021/04/27 11:08:59;;;;;;;5.75;3.30;;;;;;;21.88;42.75;100674.13;143740;610;47012;-76
2021/04/27 11:11:34;;;;;;;5.80;2.97;;;;;;;21.68;42.68;100670.34;143738;564;47011;-75
2021/04/27 11:14:34;;;;;;;6.12;3.60;;;;;;;21.53;42.25;100666.12;143738;637;47010;-77
2021/04/27 11:17:40;;;;;;;7.15;4.03;;;;;;;21.68;41.06;100654.28;143737;626;46020;-74
2021/04/27 11:20:11;;;;;;;5.70;3.47;;;;;;;21.89;41.53;100661.66;143740;598;46011;-76
2021/04/27 11:22:51;;;;;;;5.35;3.47;;;;;;;21.89;41.04;100650.97;143741;618;46020;-75
2021/04/27 11:25:35;;;;;;;6.55;3.80;;;;;;;21.84;40.23;100648.62;143741;569;47012;-76
2021/04/27 11:28:02;;;;;;;;;;;;;;;21.89;39.73;100645.59;143741;982;46019;-77
2021/04/27 11:30:36;;;;;;;6.15;3.75;;;;;;;21.87;38.80;100655.56;143751;593;46008;-75
2021/04/27 11:33:07;;;;;;;6.43;3.80;;;;;;;21.98;39.65;100645.75;143740;578;47008;-76
2021/04/27 11:35:43;;;;;;;6.53;3.67;;;;;;;22.29;39.45;100638.03;143738;564;46019;-76
2021/04/27 11:38:11;;;;;;;6.68;3.60;;;;;;;22.34;39.14;100632.34;143739;582;46010;-77